Time;durP1;ratioP1;P1;durP2;ratioP2;P2;SDS_P1;SDS_P2;PMS_P1;PMS_P2;Temp;Humidity;BMP_temperature;BMP_pressure;BME280_temperature;BME280_humidity;BME280_pressure;Samples;Min_cycle;Max_cycle;Signal;HPM_P1;HPM_P2
2023/03/28 00:00:01;;;;;;;3.80;1.75;;;7.40;75.90;;;;;;4886380;29;20141;-84
2023/03/28 00:02:37;;;;;;;3.22;1.83;;;7.40;75.90;;;;;;4916820;29;20044;-84
2023/03/28 00:05:03;;;;;;;3.05;1.90;;;7.40;76.00;;;;;;4870285;29;20118;-84
2023/03/28 00:07:30;;;;;;;3.10;2.20;;;7.40;76.00;;;;;;4901922;29;20028;-83
2023/03/28 00:09:56;;;;;;;3.63;1.92;;;7.30;76.00;;;;;;4885694;29;20043;-84
2023/03/28 00:12:23;;;;;;;3.85;2.30;;;7.30;76.00;;;;;;4901171;29;20130;-84
2023/03/28 00:14:49;;;;;;;3.13;2.10;;;7.30;76.00;;;;;;4885545;29;20384;-83
2023/03/28 00:17:16;;;;;;;2.70;2.00;;;7.30;76.00;;;;;;4917998;29;20111;-82
2023/03/28 00:19:42;;;;;;;3.72;2.10;;;7.30;76.00;;;;;;4901176;29;20100;-83
2023/03/28 00:22:10;;;;;;;3.25;1.90;;;7.20;76.00;;;;;;4901195;29;20028;-83
2023/03/28 00:24:37;;;;;;;2.05;1.80;;;7.20;76.00;;;;;;4917567;29;20118;-84
2023/03/28 00:27:04;;;;;;;3.75;2.00;;;7.20;76.00;;;;;;4901139;29;20168;-83
2023/03/28 00:29:30;;;;;;;2.63;1.92;;;7.20;76.00;;;;;;4901039;29;20063;-83
2023/03/28 00:31:57;;;;;;;3.20;2.42;;;7.20;76.10;;;;;;4917318;29;20028;-84
2023/03/28 00:34:23;;;;;;;2.28;1.90;;;7.10;76.00;;;;;;4900691;29;20043;-86
2023/03/28 00:36:49;;;;;;;2.78;2.00;;;7.10;76.00;;;;;;4884979;29;20389;-84
2023/03/28 00:39:15;;;;;;;2.72;2.10;;;7.10;76.10;;;;;;4900685;29;20044;-83
2023/03/28 00:41:43;;;;;;;3.25;2.20;;;7.00;76.00;;;;;;4916768;29;20475;-84
2023/03/28 00:44:37;;;;;;;3.72;2.30;;;7.10;76.10;;;;;;4900600;29;20040;-83
2023/03/28 00:47:03;;;;;;;2.58;2.13;;;7.00;76.10;;;;;;4900684;29;20187;-82
2023/03/28 00:49:29;;;;;;;4.25;2.00;;;7.00;76.10;;;;;;4900768;29;20039;-83
2023/03/28 00:51:57;;;;;;;2.72;1.85;;;7.00;76.10;;;;;;4885048;29;20526;-82
2023/03/28 00:54:27;;;;;;;2.85;1.90;;;7.00;76.20;;;;;;4902490;29;20032;-86
2023/03/28 00:56:56;;;;;;;3.13;2.10;;;6.90;76.10;;;;;;4904219;29;20072;-83
2023/03/28 00:59:26;;;;;;;3.45;1.98;;;6.90;76.10;;;;;;4903993;29;20434;-84
2023/03/28 01:01:54;;;;;;;2.38;1.90;;;6.90;76.10;;;;;;4903962;29;20043;-82
2023/03/28 01:04:23;;;;;;;2.78;2.22;;;6.90;76.10;;;;;;4903593;29;20354;-82
2023/03/28 01:06:55;;;;;;;2.72;1.90;;;6.80;76.10;;;;;;4888729;29;20070;-85
2023/03/28 01:09:23;;;;;;;2.55;2.00;;;6.80;76.10;;;;;;4903714;29;20120;-83
2023/03/28 01:11:52;;;;;;;3.05;2.17;;;6.80;76.20;;;;;;4904151;29;20028;-82
2023/03/28 01:14:22;;;;;;;3.30;1.98;;;6.80;76.10;;;;;;4903616;29;20453;-82
2023/03/28 01:16:51;;;;;;;3.17;2.22;;;6.80;76.10;;;;;;4888455;29;20084;-84
2023/03/28 01:19:31;;;;;;;2.38;1.92;;;6.70;76.10;;;;;;4903439;29;20361;-83
2023/03/28 01:22:12;;;;;;;2.05;1.85;;;6.70;76.10;;;;;;4919583;29;20040;-81
2023/03/28 01:25:00;;;;;;;3.88;2.20;;;6.70;76.10;;;;;;4903670;29;20123;-81
2023/03/28 01:27:33;;;;;;;2.45;2.10;;;6.70;76.20;;;;;;4903422;29;20066;-83
2023/03/28 01:30:48;;;;;;;2.83;2.03;;;6.60;76.10;;;;;;4919594;29;20028;-85
2023/03/28 01:34:19;;;;;;;3.00;2.00;;;6.60;76.20;;;;;;4906619;29;20110;-82
2023/03/28 01:37:17;;;;;;;2.10;1.90;;;6.60;76.20;;;;;;4903602;29;20409;-82
2023/03/28 01:39:56;;;;;;;1.95;1.77;;;6.50;76.20;;;;;;4876390;29;20036;-83
2023/03/28 01:42:39;;;;;;;2.40;2.20;;;6.50;76.20;;;;;;4919646;29;20036;-81
2023/03/28 01:45:14;;;;;;;2.53;2.00;;;6.50;76.30;;;;;;4887750;29;20044;-81
2023/03/28 01:47:41;;;;;;;;;;;6.50;76.30;;;;;;4903742;29;20033;-82
2023/03/28 01:50:17;;;;;;;3.00;2.00;;;6.40;76.20;;;;;;4903155;29;19907;-82
2023/03/28 01:53:07;;;;;;;3.13;1.80;;;6.40;76.10;;;;;;4903066;29;20111;-81
2023/03/28 01:55:44;;;;;;;3.13;1.90;;;6.40;76.30;;;;;;4903372;29;20105;-82
2023/03/28 01:58:22;;;;;;;3.75;2.00;;;6.40;76.30;;;;;;4888358;29;20095;-85
2023/03/28 02:01:04;;;;;;;3.03;2.40;;;6.30;76.20;;;;;;4919535;29;20139;-82
2023/03/28 02:03:41;;;;;;;3.15;2.10;;;6.40;76.30;;;;;;4903303;29;20043;-81
2023/03/28 02:06:35;;;;;;;3.22;2.20;;;6.30;76.30;;;;;;4906300;29;20035;-81
2023/03/28 02:09:04;;;;;;;2.75;2.20;;;6.30;76.30;;;;;;4888544;29;20036;-82
2023/03/28 02:12:00;;;;;;;3.17;2.10;;;6.30;76.30;;;;;;4903359;29;20139;-82
2023/03/28 02:14:37;;;;;;;3.42;2.30;;;6.20;76.30;;;;;;4903661;29;20040;-82
2023/03/28 02:17:41;;;;;;;3.28;2.00;;;6.20;76.30;;;;;;4887477;29;20044;-82
2023/03/28 02:20:11;;;;;;;2.05;1.85;;;6.20;76.30;;;;;;4902663;29;20131;-84
2023/03/28 02:23:16;;;;;;;2.55;1.90;;;6.20;76.30;;;;;;4902483;29;20039;-82
2023/03/28 02:26:00;;;;;;;2.25;1.95;;;6.20;76.30;;;;;;4903364;29;20036;-81
2023/03/28 02:28:41;;;;;;;2.75;2.20;;;6.20;76.30;;;;;;4904819;29;20084;-82
2023/03/28 02:31:12;;;;;;;2.25;1.90;;;6.10;76.30;;;;;;4903332;29;20099;-82
2023/03/28 02:33:44;;;;;;;3.70;2.38;;;6.10;76.30;;;;;;4902756;29;20091;-81
2023/03/28 02:36:28;;;;;;;3.03;2.05;;;6.10;76.30;;;;;;4902782;29;20091;-81
2023/03/28 02:39:09;;;;;;;2.53;2.10;;;6.10;76.40;;;;;;4887708;29;20028;-81
2023/03/28 02:41:47;;;;;;;3.25;2.45;;;6.10;76.40;;;;;;4919330;29;20043;-82
2023/03/28 02:44:24;;;;;;;3.85;2.40;;;6.10;76.40;;;;;;4902402;29;20036;-82
2023/03/28 02:46:58;;;;;;;3.13;2.17;;;6.00;76.30;;;;;;4902323;29;20032;-82
2023/03/28 02:49:49;;;;;;;4.22;2.50;;;6.00;76.40;;;;;;4903161;29;20442;-81
2023/03/28 02:52:50;;;;;;;2.80;2.20;;;6.00;76.40;;;;;;4901706;29;20052;-81
2023/03/28 02:55:55;;;;;;;2.65;2.13;;;6.00;76.40;;;;;;4902494;29;20063;-83
2023/03/28 02:58:55;;;;;;;2.70;2.13;;;5.90;76.30;;;;;;4918297;29;20032;-84
2023/03/28 03:01:28;;;;;;;3.45;2.22;;;5.90;76.30;;;;;;4889476;29;20028;-81
2023/03/28 03:03:54;;;;;;;5.65;2.70;;;5.90;76.40;;;;;;4902620;29;20039;-82
2023/03/28 03:06:21;;;;;;;3.53;2.25;;;5.90;76.40;;;;;;4902273;29;20021;-81
2023/03/28 03:08:48;;;;;;;2.53;1.95;;;5.90;76.40;;;;;;4901868;29;20048;-81
2023/03/28 03:11:14;;;;;;;3.10;2.50;;;5.90;76.40;;;;;;4886212;29;20051;-81
2023/03/28 03:13:42;;;;;;;3.50;2.63;;;5.90;76.40;;;;;;4901750;29;20430;-81
2023/03/28 03:16:08;;;;;;;4.30;2.70;;;5.90;76.40;;;;;;4916995;29;20028;-81
2023/03/28 03:18:35;;;;;;;3.53;2.60;;;5.80;76.30;;;;;;4902229;29;20035;-82
2023/03/28 03:21:02;;;;;;;3.70;2.40;;;5.80;76.40;;;;;;4901502;29;20040;-84
2023/03/28 03:23:28;;;;;;;2.95;2.15;;;5.80;76.50;;;;;;4901520;29;20036;-80
2023/03/28 03:25:56;;;;;;;3.58;2.42;;;5.80;76.40;;;;;;4901485;29;20032;-82
2023/03/28 03:28:32;;;;;;;2.67;2.30;;;5.80;76.40;;;;;;4902189;29;20103;-81
2023/03/28 03:31:01;;;;;;;5.45;2.50;;;5.80;76.40;;;;;;4901445;29;20040;-81
2023/03/28 03:33:41;;;;;;;2.75;2.30;;;5.70;76.40;;;;;;4917491;29;20079;-82
2023/03/28 03:36:11;;;;;;;3.17;2.50;;;5.70;76.40;;;;;;4901318;29;20044;-84
2023/03/28 03:38:37;;;;;;;3.13;2.53;;;5.70;76.40;;;;;;4901490;29;20131;-81
2023/03/28 03:41:03;;;;;;;2.72;2.45;;;5.70;76.40;;;;;;4917394;29;20051;-81
2023/03/28 03:43:29;;;;;;;4.57;2.60;;;5.70;76.40;;;;;;4916895;29;20504;-81
2023/03/28 03:45:56;;;;;;;3.38;2.47;;;5.70;76.40;;;;;;4901309;29;20024;-83
2023/03/28 03:48:22;;;;;;;4.50;2.58;;;5.60;76.40;;;;;;4885628;29;20063;-83
2023/03/28 03:50:53;;;;;;;3.85;2.53;;;5.60;76.40;;;;;;4901288;29;20036;-86
2023/03/28 03:53:19;;;;;;;3.72;2.65;;;5.60;76.40;;;;;;4900513;29;20052;-82
2023/03/28 03:56:00;;;;;;;3.78;2.78;;;5.60;77.00;;;;;;4887073;29;20036;-83
2023/03/28 03:58:26;;;;;;;3.78;2.45;;;5.60;76.40;;;;;;4901669;29;20120;-81
2023/03/28 04:00:52;;;;;;;3.60;2.50;;;5.60;76.40;;;;;;4901195;29;20077;-81
2023/03/28 04:03:36;;;;;;;3.42;2.58;;;5.50;76.30;;;;;;4903841;29;20056;-81
2023/03/28 04:06:04;;;;;;;4.55;2.45;;;5.50;76.30;;;;;;4885617;29;20047;-83
2023/03/28 04:08:31;;;;;;;3.55;2.65;;;5.50;76.40;;;;;;4885591;29;20032;-82
2023/03/28 04:10:57;;;;;;;4.53;2.70;;;5.50;76.40;;;;;;4900952;29;20058;-82
2023/03/28 04:13:23;;;;;;;3.17;2.50;;;5.50;76.40;;;;;;4901628;29;20488;-82
2023/03/28 04:15:54;;;;;;;3.45;2.40;;;5.50;76.50;;;;;;4901285;29;20043;-83
2023/03/28 04:18:28;;;;;;;3.75;2.80;;;5.40;76.40;;;;;;4902412;29;20068;-84
2023/03/28 04:20:58;;;;;;;3.58;2.50;;;5.40;76.40;;;;;;4917555;29;20146;-82
2023/03/28 04:23:42;;;;;;;3.95;2.92;;;5.40;76.40;;;;;;4917930;29;20028;-83
2023/03/28 04:26:24;;;;;;;3.90;2.77;;;5.40;76.40;;;;;;4901838;29;20040;-84
2023/03/28 04:29:02;;;;;;;3.88;2.80;;;5.40;76.40;;;;;;4904145;29;20059;-83
2023/03/28 04:31:34;;;;;;;3.10;2.42;;;5.40;76.40;;;;;;4904668;29;20048;-85
2023/03/28 04:34:24;;;;;;;3.47;2.70;;;5.40;76.50;;;;;;4892504;29;20044;-82
2023/03/28 04:37:10;;;;;;;3.85;2.90;;;5.30;76.40;;;;;;4894391;29;20040;-82
2023/03/28 04:40:14;;;;;;;3.92;2.80;;;5.30;76.30;;;;;;4919726;29;20036;-80
2023/03/28 04:42:51;;;;;;;3.85;2.70;;;5.30;76.30;;;;;;4905446;29;20119;-83
2023/03/28 04:45:25;;;;;;;3.63;2.90;;;5.30;76.30;;;;;;4860564;29;20092;-83
2023/03/28 04:47:52;;;;;;;3.70;2.75;;;5.20;76.40;;;;;;4888719;29;20036;-81
2023/03/28 04:50:20;;;;;;;3.85;2.70;;;5.20;76.40;;;;;;4904360;29;20024;-88
2023/03/28 04:52:46;;;;;;;4.45;2.78;;;5.20;76.40;;;;;;4920503;29;20094;-84
2023/03/28 04:55:14;;;;;;;5.43;3.00;;;5.20;76.40;;;;;;4873689;29;20549;-84
2023/03/28 04:57:41;;;;;;;4.65;3.10;;;5.20;76.40;;;;;;4920061;29;20036;-87
2023/03/28 05:00:11;;;;;;;4.75;3.20;;;5.20;76.40;;;;;;4904690;29;20080;-89
2023/03/28 05:03:12;;;;;;;3.42;2.63;;;5.20;76.40;;;;;;4888882;29;20369;-86
2023/03/28 05:05:47;;;;;;;4.15;2.88;;;5.20;76.40;;;;;;4905556;29;20418;-85
2023/03/28 05:08:15;;;;;;;4.13;3.20;;;5.10;76.40;;;;;;4904156;29;20091;-86
2023/03/28 05:10:43;;;;;;;4.95;2.88;;;5.10;76.40;;;;;;4903835;29;20027;-86
2023/03/28 05:13:10;;;;;;;4.10;3.00;;;5.10;76.40;;;;;;4920599;29;20032;-86
2023/03/28 05:15:48;;;;;;;4.07;2.92;;;5.10;76.40;;;;;;4904499;29;20055;-86
2023/03/28 05:18:23;;;;;;;3.63;2.70;;;5.10;76.40;;;;;;4904414;29;20183;-87
2023/03/28 05:20:49;;;;;;;3.95;2.97;;;5.10;76.40;;;;;;4888484;29;20036;-86
2023/03/28 05:23:17;;;;;;;4.13;3.05;;;5.10;76.40;;;;;;4904255;29;20036;-84
2023/03/28 05:25:50;;;;;;;3.65;2.95;;;5.00;76.40;;;;;;4904483;29;20414;-85
2023/03/28 05:28:17;;;;;;;5.13;3.00;;;5.10;76.40;;;;;;4903817;29;20438;-88
2023/03/28 05:30:49;;;;;;;2.95;2.60;;;5.00;76.40;;;;;;4889270;29;20032;-84
2023/03/28 05:33:15;;;;;;;3.95;2.92;;;5.00;76.40;;;;;;4909448;29;20034;-85
2023/03/28 05:35:42;;;;;;;5.38;3.10;;;5.00;76.40;;;;;;4912387;29;20083;-84
2023/03/28 05:38:08;;;;;;;4.78;2.80;;;5.00;76.40;;;;;;4911077;29;20154;-85
2023/03/28 05:40:36;;;;;;;4.43;3.28;;;4.90;76.40;;;;;;4888885;29;20118;-84
2023/03/28 05:43:01;;;;;;;3.13;2.70;;;5.00;76.50;;;;;;4903668;29;20040;-83
2023/03/28 05:45:27;;;;;;;3.20;2.60;;;4.90;76.40;;;;;;4903553;29;20028;-83
2023/03/28 05:48:14;;;;;;;3.80;3.00;;;4.90;76.40;;;;;;4905747;29;20052;-84
2023/03/28 05:50:40;;;;;;;3.58;2.65;;;4.90;76.40;;;;;;4887796;29;20035;-84
2023/03/28 05:53:06;;;;;;;3.67;2.88;;;4.90;76.40;;;;;;4918952;29;20127;-84
2023/03/28 05:55:32;;;;;;;5.80;3.08;;;4.90;76.40;;;;;;4904227;29;20040;-84
2023/03/28 05:57:58;;;;;;;4.82;2.83;;;4.90;76.40;;;;;;4887663;29;20061;-84
2023/03/28 06:00:33;;;;;;;3.40;3.00;;;4.90;76.40;;;;;;4889418;29;20068;-84
2023/03/28 06:02:59;;;;;;;3.63;2.53;;;4.90;76.50;;;;;;4903225;29;20042;-83
2023/03/28 06:05:35;;;;;;;3.90;2.90;;;4.90;76.40;;;;;;4888607;29;20111;-84
2023/03/28 06:08:04;;;;;;;4.22;3.17;;;4.90;76.40;;;;;;4903586;29;20032;-84
2023/03/28 06:10:30;;;;;;;4.75;2.75;;;4.90;76.40;;;;;;4856993;29;20083;-84
2023/03/28 06:13:16;;;;;;;4.13;2.90;;;4.80;76.40;;;;;;4892382;29;20044;-85
2023/03/28 06:15:44;;;;;;;4.05;2.88;;;4.90;76.40;;;;;;4887909;29;20036;-85
2023/03/28 06:18:10;;;;;;;4.15;2.63;;;4.80;76.40;;;;;;4903395;29;20047;-84
2023/03/28 06:20:42;;;;;;;4.97;3.33;;;4.80;76.40;;;;;;4919156;29;20040;-86
2023/03/28 06:23:08;;;;;;;3.55;2.72;;;4.80;76.40;;;;;;4888601;29;20080;-84
2023/03/28 06:25:34;;;;;;;4.07;2.75;;;4.80;76.40;;;;;;4902921;29;20024;-84
2023/03/28 06:28:01;;;;;;;3.65;3.10;;;4.80;76.40;;;;;;4918658;29;20039;-84
2023/03/28 06:30:27;;;;;;;4.15;2.95;;;4.80;76.40;;;;;;4902965;29;20136;-83
2023/03/28 06:32:54;;;;;;;4.22;2.90;;;4.80;76.40;;;;;;4902705;29;20084;-86
2023/03/28 06:35:20;;;;;;;3.55;2.67;;;4.80;76.40;;;;;;4871922;29;20024;-85
2023/03/28 06:37:45;;;;;;;4.57;2.88;;;4.80;76.40;;;;;;4872237;29;20509;-85
2023/03/28 06:40:15;;;;;;;5.20;3.08;;;4.80;76.40;;;;;;4902686;29;20092;-84
2023/03/28 06:42:42;;;;;;;4.07;2.90;;;4.80;76.40;;;;;;4887187;29;20486;-85
2023/03/28 06:45:19;;;;;;;4.03;3.03;;;4.80;76.40;;;;;;4875489;29;20036;-85
2023/03/28 06:48:05;;;;;;;4.72;3.13;;;4.80;76.40;;;;;;4905017;29;20055;-85
2023/03/28 06:50:50;;;;;;;4.18;3.50;;;4.80;76.40;;;;;;4905329;29;20187;-85
2023/03/28 06:53:19;;;;;;;4.13;2.70;;;4.80;76.40;;;;;;4886812;29;20056;-86
2023/03/28 06:55:45;;;;;;;5.00;2.97;;;4.80;76.40;;;;;;4902453;29;20382;-85
2023/03/28 06:58:11;;;;;;;4.18;3.17;;;4.80;76.40;;;;;;4887278;29;20042;-85
2023/03/28 07:00:45;;;;;;;3.33;2.70;;;4.80;76.50;;;;;;4888152;29;20046;-86
2023/03/28 07:03:29;;;;;;;3.30;2.57;;;4.80;76.40;;;;;;4906067;29;20139;-86
2023/03/28 07:05:56;;;;;;;3.15;2.58;;;4.80;76.40;;;;;;4886929;29;20032;-85
2023/03/28 07:08:22;;;;;;;3.55;2.65;;;4.80;76.40;;;;;;4902347;29;20362;-87
2023/03/28 07:10:49;;;;;;;3.85;2.72;;;4.80;76.50;;;;;;4902188;29;20032;-85
2023/03/28 07:13:15;;;;;;;3.70;2.83;;;4.80;76.40;;;;;;4886461;29;20047;-85
2023/03/28 07:16:04;;;;;;;3.67;2.97;;;4.80;76.40;;;;;;4902371;29;20032;-84
2023/03/28 07:18:31;;;;;;;3.58;2.60;;;4.80;76.40;;;;;;4902136;29;20126;-86
2023/03/28 07:20:57;;;;;;;4.88;2.83;;;4.80;76.40;;;;;;4917873;29;20115;-85
2023/03/28 07:23:23;;;;;;;3.70;3.00;;;4.80;76.40;;;;;;4918702;29;20032;-86
2023/03/28 07:25:49;;;;;;;3.83;2.72;;;4.90;76.50;;;;;;4886383;29;20505;-87
2023/03/28 07:28:15;;;;;;;3.58;2.80;;;4.90;76.50;;;;;;4918077;29;20039;-86
2023/03/28 07:30:41;;;;;;;4.18;3.28;;;4.90;76.50;;;;;;4902912;29;20476;-85
2023/03/28 07:33:07;;;;;;;4.03;3.03;;;4.90;76.40;;;;;;4902555;29;20130;-85
2023/03/28 07:35:32;;;;;;;4.13;2.88;;;4.90;76.40;;;;;;4917695;29;20568;-85
2023/03/28 07:37:58;;;;;;;3.55;2.72;;;4.90;76.40;;;;;;4886376;29;20032;-85
2023/03/28 07:40:43;;;;;;;3.33;2.58;;;4.90;76.30;;;;;;4902867;29;20468;-87
2023/03/28 07:43:09;;;;;;;3.00;2.53;;;5.00;76.30;;;;;;4901935;29;20061;-86
2023/03/28 07:45:36;;;;;;;4.35;2.88;;;5.00;77.00;;;;;;4902090;29;20028;-87
2023/03/28 07:48:02;;;;;;;3.05;2.65;;;5.00;76.30;;;;;;4886295;29;20063;-86
2023/03/28 07:50:28;;;;;;;3.88;3.00;;;5.00;76.40;;;;;;4902305;29;20060;-86
2023/03/28 07:52:56;;;;;;;4.00;2.90;;;5.00;76.30;;;;;;4901391;29;20209;-85
2023/03/28 07:55:25;;;;;;;3.47;2.65;;;5.10;76.40;;;;;;4917547;29;20055;-86
2023/03/28 07:57:51;;;;;;;3.65;2.60;;;5.10;76.40;;;;;;4901611;29;20369;-86
2023/03/28 08:00:27;;;;;;;3.10;2.80;;;5.10;76.40;;;;;;4872562;29;20037;-85
2023/03/28 08:03:13;;;;;;;3.45;2.75;;;5.10;76.30;;;;;;4918153;29;20489;-86
2023/03/28 08:05:42;;;;;;;3.28;2.67;;;5.10;76.30;;;;;;4901625;29;20091;-86
2023/03/28 08:08:08;;;;;;;3.55;2.75;;;5.10;76.30;;;;;;4902094;29;20036;-88
2023/03/28 08:10:35;;;;;;;3.80;2.50;;;5.10;76.30;;;;;;4894293;29;20465;-87
2023/03/28 08:13:02;;;;;;;3.58;2.72;;;5.20;76.30;;;;;;4909250;29;20046;-87
2023/03/28 08:15:28;;;;;;;3.53;3.00;;;5.20;76.30;;;;;;4905184;29;20107;-86
2023/03/28 08:17:54;;;;;;;4.13;3.35;;;5.20;76.30;;;;;;4887131;29;20063;-86
2023/03/28 08:20:20;;;;;;;3.35;2.58;;;5.20;76.30;;;;;;4871122;29;20068;-87
2023/03/28 08:23:04;;;;;;;4.45;3.10;;;5.30;76.30;;;;;;4889137;29;20032;-87
2023/03/28 08:25:36;;;;;;;3.55;3.05;;;5.30;76.20;;;;;;4873168;29;20072;-86
2023/03/28 08:28:02;;;;;;;4.47;2.83;;;5.30;76.20;;;;;;4885908;29;20036;-87
2023/03/28 08:30:28;;;;;;;3.72;2.90;;;5.30;76.20;;;;;;4886076;29;20192;-87
2023/03/28 08:32:58;;;;;;;3.25;2.90;;;5.30;76.30;;;;;;4885977;29;20039;-87
2023/03/28 08:35:25;;;;;;;3.45;3.03;;;5.30;76.20;;;;;;4901717;29;20040;-86
2023/03/28 08:37:55;;;;;;;5.32;3.10;;;5.40;76.30;;;;;;4886591;29;20131;-87
2023/03/28 08:40:24;;;;;;;3.63;2.90;;;5.40;76.30;;;;;;4885595;29;20036;-86
2023/03/28 08:43:02;;;;;;;3.28;2.88;;;5.40;76.30;;;;;;4900721;29;20040;-87
2023/03/28 08:45:50;;;;;;;3.25;2.90;;;5.40;76.30;;;;;;4901427;29;20052;-85
2023/03/28 08:48:38;;;;;;;3.63;3.10;;;5.50;76.40;;;;;;4901475;29;20064;-86
2023/03/28 08:51:11;;;;;;;4.50;3.10;;;5.50;76.30;;;;;;4916745;29;20043;-87
2023/03/28 08:53:42;;;;;;;4.45;3.30;;;5.50;76.20;;;;;;4901622;29;20076;-87
2023/03/28 08:56:08;;;;;;;4.28;3.20;;;5.50;76.20;;;;;;4903814;29;20032;-87
2023/03/28 08:59:03;;;;;;;3.88;3.00;;;5.60;76.20;;;;;;4903705;29;20052;-87
2023/03/28 09:01:31;;;;;;;3.20;2.70;;;5.60;76.30;;;;;;4879229;29;20083;-87
2023/03/28 09:03:59;;;;;;;3.85;3.00;;;5.70;76.20;;;;;;4870297;29;20040;-87
2023/03/28 09:06:35;;;;;;;3.75;3.00;;;5.70;76.20;;;;;;4901209;29;20525;-88
2023/03/28 09:09:22;;;;;;;2.78;2.58;;;5.80;76.20;;;;;;4901326;29;20033;-86
2023/03/28 09:12:19;;;;;;;3.83;2.83;;;5.80;76.30;;;;;;4901567;29;20044;-87
2023/03/28 09:15:22;;;;;;;3.42;2.83;;;5.90;76.20;;;;;;4901838;29;20038;-86
2023/03/28 09:17:51;;;;;;;3.38;2.70;;;5.90;76.20;;;;;;4896126;29;20052;-86
2023/03/28 09:20:32;;;;;;;3.08;2.33;;;6.00;76.10;;;;;;4906373;29;20609;-87
2023/03/28 09:23:21;;;;;;;2.95;2.65;;;6.00;76.20;;;;;;4906732;29;20032;-86
2023/03/28 09:26:21;;;;;;;3.47;2.58;;;6.00;76.00;;;;;;4923357;29;20044;-86
2023/03/28 09:29:01;;;;;;;3.72;2.47;;;6.10;76.10;;;;;;4922945;29;20123;-87
2023/03/28 09:31:33;;;;;;;4.72;2.60;;;6.10;76.10;;;;;;4906110;29;20536;-87
2023/03/28 09:34:02;;;;;;;3.25;2.70;;;6.20;76.10;;;;;;4906549;29;20032;-86
2023/03/28 09:36:45;;;;;;;3.00;2.47;;;6.30;76.10;;;;;;4907255;29;20031;-87
2023/03/28 09:39:29;;;;;;;3.42;2.53;;;6.30;76.00;;;;;;4905822;29;20024;-87
2023/03/28 09:42:05;;;;;;;3.88;2.47;;;6.40;76.10;;;;;;4907036;29;20067;-87
2023/03/28 09:45:23;;;;;;;3.40;2.42;;;6.50;76.10;;;;;;4918285;29;20040;-87
2023/03/28 09:47:57;;;;;;;5.18;2.55;;;6.50;76.00;;;;;;4886257;29;20144;-87
2023/03/28 09:50:26;;;;;;;3.53;2.65;;;6.60;75.80;;;;;;4921242;29;20032;-87
2023/03/28 09:52:57;;;;;;;3.35;2.35;;;6.60;75.80;;;;;;4889186;29;20149;-86
2023/03/28 09:55:25;;;;;;;3.65;2.20;;;6.70;75.80;;;;;;4904101;29;20489;-86
2023/03/28 09:58:09;;;;;;;2.70;2.33;;;6.70;75.80;;;;;;4888652;29;20465;-87
2023/03/28 10:01:26;;;;;;;2.20;2.00;;;6.80;75.80;;;;;;4898397;29;20035;-89
2023/03/28 10:04:35;;;;;;;2.30;2.10;;;6.90;75.70;;;;;;4920499;29;20377;-86
2023/03/28 10:07:10;;;;;;;3.70;2.63;;;7.00;75.60;;;;;;4920655;29;20389;-86
2023/03/28 10:09:55;;;;;;;2.97;2.42;;;7.00;75.50;;;;;;4904044;29;20032;-86
2023/03/28 10:12:35;;;;;;;2.53;2.15;;;7.10;75.60;;;;;;4903275;29;20036;-86
2023/03/28 10:15:01;;;;;;;2.42;2.22;;;7.20;75.60;;;;;;4903481;29;20117;-87
2023/03/28 10:17:49;;;;;;;3.17;2.72;;;7.20;75.50;;;;;;4880328;29;20044;-86
2023/03/28 10:20:23;;;;;;;3.08;2.38;;;7.30;75.50;;;;;;4903578;29;20410;-87
2023/03/28 10:22:54;;;;;;;4.80;2.60;;;7.40;75.60;;;;;;4903248;29;20135;-88
2023/03/28 10:25:35;;;;;;;2.92;2.40;;;7.40;75.50;;;;;;4903700;29;20041;-87
2023/03/28 10:28:03;;;;;;;2.53;2.17;;;7.50;75.50;;;;;;4887177;29;20086;-87
2023/03/28 10:30:32;;;;;;;2.90;2.42;;;7.60;75.50;;;;;;4902965;29;20434;-88
2023/03/28 10:33:08;;;;;;;3.72;2.20;;;7.60;75.40;;;;;;4902813;29;20036;-87
2023/03/28 10:35:52;;;;;;;2.50;2.20;;;7.70;75.50;;;;;;4903113;29;20063;-88
2023/03/28 10:38:23;;;;;;;2.85;2.30;;;7.80;75.40;;;;;;4902926;29;20040;-88
2023/03/28 10:41:21;;;;;;;2.97;2.30;;;7.80;75.40;;;;;;4918923;29;20044;-88
2023/03/28 10:44:18;;;;;;;2.55;2.35;;;7.90;75.40;;;;;;4906116;29;20172;-87
2023/03/28 10:46:54;;;;;;;2.67;2.40;;;8.00;75.40;;;;;;4908188;29;20100;-87
2023/03/28 10:49:43;;;;;;;2.33;2.13;;;8.00;75.30;;;;;;4896175;29;20036;-88
2023/03/28 10:52:21;;;;;;;2.47;2.10;;;8.10;75.40;;;;;;4926490;29;20056;-86
2023/03/28 10:55:13;;;;;;;3.22;2.22;;;8.20;75.40;;;;;;4906940;29;20363;-87
2023/03/28 10:58:20;;;;;;;2.50;2.13;;;8.20;75.40;;;;;;4920184;29;20445;-87
2023/03/28 11:01:07;;;;;;;3.10;2.30;;;8.30;75.30;;;;;;4902763;29;20035;-87
2023/03/28 11:04:04;;;;;;;3.67;2.17;;;8.40;75.30;;;;;;4918858;29;20406;-87
2023/03/28 11:06:43;;;;;;;2.58;2.20;;;8.40;75.30;;;;;;4902437;29;20032;-88
2023/03/28 11:09:17;;;;;;;2.83;2.33;;;8.50;75.30;;;;;;4902837;29;20024;-87
2023/03/28 11:12:30;;;;;;;3.50;2.40;;;8.60;75.30;;;;;;4895871;29;20127;-87
2023/03/28 11:15:16;;;;;;;2.25;2.05;;;8.70;75.30;;;;;;4902869;29;20046;-87
2023/03/28 11:17:58;;;;;;;2.63;2.13;;;8.70;75.30;;;;;;4887918;29;20481;-88
2023/03/28 11:20:42;;;;;;;3.10;2.45;;;8.80;75.30;;;;;;4902235;29;20036;-86
2023/03/28 11:23:30;;;;;;;3.50;2.28;;;8.90;75.30;;;;;;4886331;29;20040;-88
2023/03/28 11:26:25;;;;;;;2.70;2.40;;;8.90;75.30;;;;;;4917113;29;20032;-88
2023/03/28 11:29:17;;;;;;;2.40;2.05;;;9.00;75.20;;;;;;4905211;29;20039;-88
2023/03/28 11:32:04;;;;;;;2.97;2.17;;;9.00;75.20;;;;;;4902221;29;20088;-87
2023/03/28 11:34:46;;;;;;;2.80;2.45;;;9.10;75.80;;;;;;4886603;29;20036;-87
2023/03/28 11:37:26;;;;;;;2.67;2.40;;;9.20;75.20;;;;;;4917695;29;20071;-87
2023/03/28 11:39:58;;;;;;;2.75;2.08;;;9.20;75.10;;;;;;4901934;29;20032;-87
2023/03/28 11:42:43;;;;;;;3.08;2.00;;;9.30;75.10;;;;;;4902060;29;20040;-88
2023/03/28 11:45:30;;;;;;;3.17;2.05;;;9.40;75.20;;;;;;4902201;29;20099;-87
2023/03/28 11:48:17;;;;;;;2.47;2.00;;;9.50;75.20;;;;;;4901652;29;20036;-88
2023/03/28 11:51:06;;;;;;;2.15;1.95;;;9.50;75.10;;;;;;4917510;29;20039;-88
2023/03/28 11:53:55;;;;;;;3.25;2.30;;;9.50;75.10;;;;;;4901492;29;20055;-88
2023/03/28 11:56:45;;;;;;;3.08;2.08;;;9.60;75.10;;;;;;4901775;29;20200;-88
2023/03/28 11:59:51;;;;;;;2.88;2.20;;;9.70;75.10;;;;;;4918579;29;20028;-87
2023/03/28 12:02:29;;;;;;;2.42;2.00;;;9.70;75.10;;;;;;4881805;29;20103;-88
2023/03/28 12:05:17;;;;;;;2.10;1.88;;;9.80;75.00;;;;;;4901731;29;20100;-88
2023/03/28 12:08:10;;;;;;;1.92;1.73;;;9.90;75.00;;;;;;4917346;29;20462;-87
2023/03/28 12:10:40;;;;;;;2.85;2.20;;;9.90;75.00;;;;;;4901588;29;20042;-89
2023/03/28 12:13:38;;;;;;;2.40;2.00;;;10.00;74.90;;;;;;4896809;29;20071;-89
2023/03/28 12:16:16;;;;;;;2.72;1.90;;;10.00;74.80;;;;;;4901663;29;20036;-88
2023/03/28 12:18:47;;;;;;;3.35;2.00;;;10.20;74.90;;;;;;4901856;29;20510;-88
2023/03/28 12:21:41;;;;;;;2.93;1.97;;;10.20;74.80;;;;;;4901851;29;20477;-88
2023/03/28 12:24:32;;;;;;;2.88;2.05;;;10.30;74.80;;;;;;4901371;29;20099;-88
2023/03/28 12:27:46;;;;;;;2.58;1.80;;;10.30;74.70;;;;;;4917180;29;20039;-88
2023/03/28 12:30:23;;;;;;;2.05;1.80;;;10.40;74.70;;;;;;4886690;29;20028;-88
2023/03/28 12:33:19;;;;;;;3.15;2.15;;;10.40;74.70;;;;;;4901664;29;20478;-90
2023/03/28 12:36:16;;;;;;;4.03;2.38;;;10.50;74.70;;;;;;4903905;29;20063;-88
2023/03/28 12:39:18;;;;;;;2.75;2.00;;;10.50;74.60;;;;;;4917539;29;20103;-88
2023/03/28 12:41:46;;;;;;;3.15;2.15;;;10.60;74.70;;;;;;4884003;29;20134;-88
2023/03/28 12:44:23;;;;;;;3.50;2.08;;;10.70;74.60;;;;;;4901423;29;20024;-88
2023/03/28 12:46:58;;;;;;;2.38;1.90;;;10.70;74.60;;;;;;4901747;29;20083;-88
2023/03/28 12:49:38;;;;;;;2.40;1.88;;;10.80;74.60;;;;;;4901782;29;20039;-88
2023/03/28 12:52:14;;;;;;;3.97;2.30;;;10.90;74.60;;;;;;4904984;29;20095;-89
2023/03/28 12:55:22;;;;;;;2.63;2.00;;;10.90;74.50;;;;;;4904987;29;20039;-88
2023/03/28 12:58:10;;;;;;;2.25;2.03;;;10.90;74.50;;;;;;4881593;29;20101;-87
2023/03/28 13:00:51;;;;;;;2.10;1.80;;;11.00;74.50;;;;;;4905393;29;20389;-88
2023/03/28 13:04:01;;;;;;;1.95;1.80;;;11.10;74.50;;;;;;4913647;29;20036;-89
2023/03/28 13:06:52;;;;;;;2.25;1.88;;;11.10;74.40;;;;;;4904748;29;20129;-89
2023/03/28 13:09:37;;;;;;;2.10;1.90;;;11.20;74.40;;;;;;4904875;29;20370;-88
2023/03/28 13:12:29;;;;;;;2.67;1.83;;;11.20;74.50;;;;;;4904548;29;20088;-88
2023/03/28 13:15:00;;;;;;;2.88;2.10;;;11.30;74.50;;;;;;4904731;29;20500;-88
2023/03/28 13:17:30;;;;;;;2.92;2.00;;;11.30;74.50;;;;;;4904747;29;20039;-88
2023/03/28 13:20:13;;;;;;;2.65;2.08;;;11.40;74.50;;;;;;4905824;29;20039;-87
2023/03/28 13:22:56;;;;;;;2.70;1.63;;;11.40;74.50;;;;;;4908140;29;20036;-88
2023/03/28 13:25:26;;;;;;;2.10;1.90;;;11.50;74.50;;;;;;4911798;29;20063;-88
2023/03/28 13:27:55;;;;;;;2.25;1.98;;;11.60;74.50;;;;;;4911082;29;20061;-87
2023/03/28 13:30:29;;;;;;;3.40;2.17;;;11.60;74.60;;;;;;4926665;29;20099;-88
2023/03/28 13:33:22;;;;;;;2.28;1.83;;;11.60;74.60;;;;;;4908036;29;20037;-87
2023/03/28 13:36:09;;;;;;;2.83;1.92;;;11.70;74.60;;;;;;4905952;29;20091;-88
2023/03/28 13:38:49;;;;;;;2.13;1.80;;;11.70;75.10;;;;;;4878888;29;20059;-88
2023/03/28 13:41:41;;;;;;;1.90;1.70;;;11.80;74.40;;;;;;4904243;29;20052;-88
2023/03/28 13:44:28;;;;;;;3.67;1.90;;;11.80;74.40;;;;;;4904026;29;20164;-88